Time;durP1;ratioP1;P1;durP2;ratioP2;P2;SDS_P1;SDS_P2;PMS_P1;PMS_P2;Temp;Humidity;BMP_temperature;BMP_pressure;BME280_temperature;BME280_humidity;BME280_pressure;Samples;Min_cycle;Max_cycle;Signal;HPM_P1;HPM_P2
2021/03/11 00:00:40;;;;;;;131.67;53.83;;;;;;;-2.11;59.33;100490.30;124842;1110;24318;-56
2021/03/11 00:03:12;;;;;;;130.00;55.23;;;;;;;-2.10;59.52;100482.88;124287;1111;23122;-59
2021/03/11 00:05:42;;;;;;;129.18;53.50;;;;;;;-2.11;59.52;100476.61;124478;1112;26507;-56
2021/03/11 00:08:11;;;;;;;131.05;55.45;;;;;;;-2.12;59.60;100471.54;124432;1111;27368;-57
2021/03/11 00:10:41;;;;;;;125.42;50.05;;;;;;;-2.13;60.66;100473.48;124571;1112;27359;-56
2021/03/11 00:13:11;;;;;;;116.95;53.95;;;;;;;-2.14;60.78;100469.20;124931;1111;23165;-57
2021/03/11 00:15:42;;;;;;;125.33;53.13;;;;;;;-2.14;60.74;100469.20;125068;1111;23171;-57
2021/03/11 00:18:12;;;;;;;128.33;54.03;;;;;;;-2.15;60.90;100477.80;124913;1110;23080;-55
2021/03/11 00:20:41;;;;;;;129.23;53.42;;;;;;;-2.16;61.04;100460.60;124899;1112;23007;-54
2021/03/11 00:23:11;;;;;;;128.23;55.00;;;;;;;-2.16;60.81;100466.07;124998;1112;25572;-54
2021/03/11 00:25:40;;;;;;;130.50;53.10;;;;;;;-2.16;61.02;100455.13;124893;1112;23004;-54
2021/03/11 00:28:09;;;;;;;129.97;54.30;;;;;;;-2.16;61.58;100451.61;125021;1112;23024;-54
2021/03/11 00:30:38;;;;;;;128.57;53.87;;;;;;;-2.15;60.97;100450.45;124884;1111;26441;-55
2021/03/11 00:33:07;;;;;;;130.87;55.50;;;;;;;-2.16;61.44;100441.45;125041;1112;23087;-55
2021/03/11 00:35:36;;;;;;;139.50;57.53;;;;;;;-2.14;61.25;100441.06;124823;1110;24367;-53
2021/03/11 00:38:05;;;;;;;143.80;56.53;;;;;;;-2.14;61.56;100439.11;124992;1111;23019;-57
2021/03/11 00:40:35;;;;;;;137.13;55.43;;;;;;;-2.13;61.51;100442.64;124890;1111;23062;-54
2021/03/11 00:43:04;;;;;;;141.13;55.27;;;;;;;-2.13;62.09;100431.70;124941;1111;23024;-55
2021/03/11 00:45:34;;;;;;;135.97;54.77;;;;;;;-2.13;61.67;100429.72;124894;1113;23168;-55
2021/03/11 00:48:04;;;;;;;136.20;56.60;;;;;;;-2.15;61.73;100421.13;124842;1111;27406;-54
2021/03/11 00:50:37;;;;;;;134.12;56.42;;;;;;;-2.16;61.71;100418.79;125001;1113;23107;-54
2021/03/11 00:53:06;;;;;;;129.63;54.33;;;;;;;-2.16;62.08;100407.84;125150;1111;25970;-57
2021/03/11 00:55:36;;;;;;;128.57;53.48;;;;;;;-2.15;61.98;100403.95;125030;1111;23073;-53
2021/03/11 00:58:06;;;;;;;125.60;53.93;;;;;;;-2.12;61.85;100405.89;124857;1110;23016;-56
2021/03/11 01:00:36;;;;;;;128.03;53.53;;;;;;;-2.12;61.97;100406.69;124869;1112;23077;-57
2021/03/11 01:03:04;;;;;;;;;;;;;;;-2.09;61.46;100422.30;124836;1111;24663;-55
2021/03/11 01:05:35;;;;;;;122.47;53.90;;;;;;;-2.11;61.64;100399.27;124816;1110;21659;-58
2021/03/11 01:08:03;;;;;;;;;;;;;;;-2.13;62.18;100396.14;124974;1110;22975;-53
2021/03/11 01:10:32;;;;;;;124.63;54.20;;;;;;;-2.15;62.49;100384.81;124882;1111;21539;-56
2021/03/11 01:13:02;;;;;;;129.07;53.13;;;;;;;-2.18;62.40;100386.37;125005;1112;26107;-57
2021/03/11 01:15:34;;;;;;;124.37;53.43;;;;;;;-2.20;62.70;100382.45;124999;1112;23230;-54
2021/03/11 01:18:03;;;;;;;123.13;51.57;;;;;;;-2.21;62.53;100384.39;125205;1111;23018;-55
2021/03/11 01:20:32;;;;;;;127.53;52.17;;;;;;;-2.22;62.22;100382.06;125129;1110;23266;-54
2021/03/11 01:23:01;;;;;;;121.77;52.77;;;;;;;-2.25;62.56;100380.09;125057;1112;23057;-54
2021/03/11 01:25:31;;;;;;;118.70;49.83;;;;;;;-2.25;62.77;100374.62;124932;1112;23012;-53
2021/03/11 01:28:01;;;;;;;125.63;53.77;;;;;;;-2.25;63.19;100372.67;125019;1111;23091;-55
2021/03/11 01:30:31;;;;;;;121.20;51.60;;;;;;;-2.24;62.82;100374.25;124981;1110;27286;-54
2021/03/11 01:33:00;;;;;;;116.37;47.90;;;;;;;-2.25;63.08;100371.89;125015;1111;23038;-55
2021/03/11 01:35:30;;;;;;;110.07;49.27;;;;;;;-2.25;63.02;100369.16;124994;1111;23041;-55
2021/03/11 01:37:58;;;;;;;111.97;48.53;;;;;;;-2.25;62.88;100363.68;125023;1110;22971;-55
2021/03/11 01:40:28;;;;;;;110.80;48.87;;;;;;;-2.26;63.30;100353.93;125064;1110;22981;-55
2021/03/11 01:42:57;;;;;;;118.13;49.27;;;;;;;-2.27;62.99;100357.83;125177;1112;25973;-55
2021/03/11 01:45:26;;;;;;;119.10;50.10;;;;;;;-2.27;62.31;100353.14;125144;1112;23017;-56
2021/03/11 01:47:55;;;;;;;105.03;45.47;;;;;;;-2.27;62.95;100352.35;124964;1111;26434;-56
2021/03/11 01:50:24;;;;;;;126.03;50.90;;;;;;;-2.28;62.55;100339.87;124995;1111;23083;-54
2021/03/11 01:52:53;;;;;;;115.40;48.33;;;;;;;-2.28;62.93;100337.13;125017;1110;23991;-56
2021/03/11 01:55:22;;;;;;;120.27;50.13;;;;;;;-2.29;63.39;100330.88;124939;1112;23033;-57
2021/03/11 01:57:52;;;;;;;111.77;47.47;;;;;;;-2.28;63.83;100320.73;124900;1111;23064;-56
2021/03/11 02:00:22;;;;;;;106.00;47.53;;;;;;;-2.27;62.85;100311.34;124961;1112;23042;-57
2021/03/11 02:02:52;;;;;;;112.60;47.53;;;;;;;-2.26;63.27;100310.18;125090;1111;23198;-55
2021/03/11 02:05:23;;;;;;;106.70;45.07;;;;;;;-2.25;63.27;100308.99;124926;1113;23022;-57
2021/03/11 02:07:51;;;;;;;105.40;45.40;;;;;;;-2.27;63.26;100301.19;124928;1111;23109;-55
2021/03/11 02:10:24;;;;;;;106.03;47.97;;;;;;;-2.29;63.75;100298.06;124858;1112;23016;-54
2021/03/11 02:13:16;;;;;;;111.03;47.47;;;;;;;-2.28;64.01;100293.38;125010;1111;26396;-54
2021/03/11 02:15:50;;;;;;;115.73;48.30;;;;;;;-2.30;63.42;100284.80;124970;1112;23073;-53
2021/03/11 02:18:25;;;;;;;109.53;46.07;;;;;;;-2.31;63.84;100286.73;124908;1112;26453;-53
2021/03/11 02:21:03;;;;;;;111.40;47.65;;;;;;;-2.32;63.27;100271.52;124955;1111;23066;-54
2021/03/11 02:23:54;;;;;;;102.67;44.83;;;;;;;-2.31;63.94;100272.28;125071;1111;23024;-53
2021/03/11 02:26:33;;;;;;;106.87;45.88;;;;;;;-2.31;63.75;100266.81;124871;1110;23076;-53
2021/03/11 02:29:06;;;;;;;109.93;46.67;;;;;;;-2.30;63.84;100263.70;125079;1111;24067;-55
2021/03/11 02:31:39;;;;;;;104.03;44.63;;;;;;;-2.32;64.19;100263.32;124921;1113;23272;-58
2021/03/11 02:34:11;;;;;;;109.40;43.90;;;;;;;-2.32;64.18;100262.53;124958;1111;23158;-56
2021/03/11 02:36:42;;;;;;;100.23;42.77;;;;;;;-2.30;64.55;100254.72;124990;1112;23070;-56
2021/03/11 02:39:14;;;;;;;95.83;43.63;;;;;;;-2.30;64.36;100251.98;124945;1110;23027;-53
2021/03/11 02:41:45;;;;;;;98.97;44.37;;;;;;;-2.28;64.32;100255.10;124866;1110;26440;-53
2021/03/11 02:44:15;;;;;;;93.83;43.20;;;;;;;-2.27;64.03;100251.97;124959;1110;23046;-54
2021/03/11 02:46:44;;;;;;;;;;;;;;;-2.27;64.32;100257.44;124988;1110;23073;-56
2021/03/11 02:49:13;;;;;;;102.50;43.00;;;;;;;-2.27;64.02;100254.70;124893;1110;24180;-53
2021/03/11 02:51:43;;;;;;;102.17;43.27;;;;;;;-2.25;64.69;100259.77;125028;1110;23024;-56
2021/03/11 02:54:17;;;;;;;100.42;41.02;;;;;;;-2.24;64.38;100244.94;125192;1112;24113;-56
2021/03/11 02:56:48;;;;;;;97.45;40.45;;;;;;;-2.22;64.15;100245.33;124946;1112;23086;-53
2021/03/11 02:59:20;;;;;;;91.70;41.57;;;;;;;-2.22;64.49;100240.64;125088;1111;26399;-54
2021/03/11 03:01:51;;;;;;;93.83;39.63;;;;;;;-2.21;64.79;100238.67;124931;1111;23017;-54
2021/03/11 03:04:22;;;;;;;95.40;40.83;;;;;;;-2.20;64.63;100235.56;125012;1112;24409;-53
2021/03/11 03:06:52;;;;;;;95.67;38.57;;;;;;;-2.20;65.01;100232.05;125124;1111;23020;-57
2021/03/11 03:09:22;;;;;;;93.55;37.48;;;;;;;-2.19;64.30;100215.23;124960;1110;24376;-53
2021/03/11 03:11:53;;;;;;;89.10;37.73;;;;;;;-2.18;64.94;100225.02;125077;1112;23007;-54
2021/03/11 03:14:25;;;;;;;86.20;37.10;;;;;;;-2.17;65.12;100212.89;124906;1110;27266;-53
2021/03/11 03:16:54;;;;;;;86.17;38.73;;;;;;;-2.16;64.98;100213.67;124985;1110;23067;-55
2021/03/11 03:19:24;;;;;;;91.97;38.88;;;;;;;-2.16;64.46;100217.20;125022;1110;23019;-53
2021/03/11 03:21:55;;;;;;;83.23;36.00;;;;;;;-2.16;64.58;100208.99;124966;1110;23087;-55
2021/03/11 03:24:24;;;;;;;93.97;38.63;;;;;;;-2.13;64.63;100210.16;124987;1110;28077;-55
2021/03/11 03:26:54;;;;;;;84.35;35.95;;;;;;;-2.12;65.23;100203.50;124997;1111;23147;-54
2021/03/11 03:29:23;;;;;;;90.03;37.50;;;;;;;-2.11;64.49;100205.08;125025;1112;23020;-53
2021/03/11 03:31:53;;;;;;;88.95;36.38;;;;;;;-2.10;64.78;100192.95;124951;1111;23016;-55
2021/03/11 03:34:22;;;;;;;86.47;36.13;;;;;;;-2.10;64.51;100187.48;124882;1111;23076;-53
2021/03/11 03:36:51;;;;;;;84.15;36.35;;;;;;;-2.11;64.05;100186.69;124859;1111;26453;-57
2021/03/11 03:39:20;;;;;;;81.67;35.93;;;;;;;-2.11;65.11;100178.48;125021;1111;25648;-53
2021/03/11 03:41:53;;;;;;;83.90;36.97;;;;;;;-2.11;64.33;100166.79;124828;1110;23024;-54
2021/03/11 03:44:25;;;;;;;84.60;35.30;;;;;;;-2.11;64.59;100167.55;124498;1111;23017;-57
2021/03/11 03:46:56;;;;;;;84.13;35.87;;;;;;;-2.10;64.72;100157.39;124371;1112;27733;-54
2021/03/11 03:49:26;;;;;;;83.60;35.50;;;;;;;-2.09;64.69;100159.72;124467;1111;23024;-54
2021/03/11 03:51:56;;;;;;;89.13;37.23;;;;;;;-2.09;65.08;100154.25;124477;1113;23282;-56
2021/03/11 03:54:26;;;;;;;;;;;;;;;-2.08;64.39;100136.68;124550;1112;23024;-54
2021/03/11 03:56:58;;;;;;;83.03;37.53;;;;;;;-2.09;64.92;100139.82;124521;1112;21533;-56
2021/03/11 03:59:30;;;;;;;89.03;36.30;;;;;;;-2.10;64.69;100133.56;124406;1112;23884;-54
2021/03/11 04:02:03;;;;;;;88.37;35.77;;;;;;;-2.08;64.98;100125.73;124318;1113;23014;-55
2021/03/11 04:04:35;;;;;;;83.20;34.27;;;;;;;-2.07;64.67;100135.49;124405;1112;23083;-56
2021/03/11 04:07:08;;;;;;;88.97;38.30;;;;;;;-2.06;65.15;100139.02;124350;1111;23223;-54
2021/03/11 04:09:38;;;;;;;78.67;35.47;;;;;;;-2.07;64.91;100132.00;124453;1113;23268;-55
2021/03/11 04:12:10;;;;;;;79.30;36.03;;;;;;;-2.06;65.57;100134.33;124262;1111;27321;-58
2021/03/11 04:14:41;;;;;;;83.80;34.90;;;;;;;-2.04;65.43;100126.50;124289;1112;23071;-56
2021/03/11 04:17:11;;;;;;;76.13;33.13;;;;;;;-2.03;64.86;100119.84;124314;1111;23273;-52
2021/03/11 04:19:41;;;;;;;81.10;34.83;;;;;;;-2.01;64.93;100106.58;124382;1111;24956;-54
2021/03/11 04:22:11;;;;;;;84.67;34.38;;;;;;;-1.99;65.41;100090.55;124419;1112;27409;-53
2021/03/11 04:24:42;;;;;;;76.82;33.50;;;;;;;-1.97;65.26;100079.20;124485;1112;27323;-57
2021/03/11 04:27:12;;;;;;;74.53;32.07;;;;;;;-1.95;65.19;100071.37;124329;1112;27922;-54
2021/03/11 04:29:42;;;;;;;75.93;31.90;;;;;;;-1.93;65.28;100061.59;124458;1112;23451;-55
2021/03/11 04:32:13;;;;;;;81.50;33.53;;;;;;;-1.90;65.07;100060.78;124437;1112;27383;-56
2021/03/11 04:34:42;;;;;;;77.47;31.97;;;;;;;-1.87;65.24;100059.20;124545;1112;23051;-57
2021/03/11 04:37:11;;;;;;;78.00;32.33;;;;;;;-1.87;65.03;100051.78;124533;1112;24846;-57
2021/03/11 04:39:42;;;;;;;76.83;31.00;;;;;;;-1.82;64.76;100056.06;124401;1111;23205;-55
2021/03/11 04:42:11;;;;;;;80.50;33.63;;;;;;;-1.81;64.74;100071.28;124308;1112;23022;-53
2021/03/11 04:44:43;;;;;;;71.37;30.65;;;;;;;-1.80;64.59;100065.41;124622;1111;23604;-53
2021/03/11 04:47:14;;;;;;;80.20;32.17;;;;;;;-1.78;64.98;100065.78;124342;1111;23021;-53
2021/03/11 04:49:44;;;;;;;76.57;33.08;;;;;;;-1.73;65.00;100064.59;124319;1111;23020;-54
2021/03/11 04:52:14;;;;;;;;;;;;;;;-1.71;64.66;100057.55;124621;1113;23031;-53
2021/03/11 04:54:43;;;;;;;75.43;32.03;;;;;;;-1.69;64.96;100049.70;124501;1112;24286;-54
2021/03/11 04:57:12;;;;;;;82.40;33.97;;;;;;;-1.67;64.55;100047.35;124393;1111;23073;-56
2021/03/11 04:59:42;;;;;;;75.13;32.20;;;;;;;-1.64;65.00;100048.52;124391;1112;27791;-54
2021/03/11 05:02:11;;;;;;;82.05;33.40;;;;;;;-1.60;64.89;100043.79;124494;1112;26170;-53
2021/03/11 05:04:44;;;;;;;78.40;33.27;;;;;;;-1.58;64.15;100041.42;124365;1112;24689;-54
2021/03/11 05:07:15;;;;;;;80.00;33.40;;;;;;;-1.56;64.96;100036.33;124381;1110;23084;-56
2021/03/11 05:09:44;;;;;;;81.80;34.90;;;;;;;-1.54;64.92;100031.23;124490;1112;23045;-53
2021/03/11 05:12:13;;;;;;;80.73;34.27;;;;;;;-1.53;64.87;100021.06;124357;1112;23024;-53
2021/03/11 05:14:42;;;;;;;77.10;33.57;;;;;;;-1.50;65.32;100015.55;124304;1111;23088;-63
2021/03/11 05:17:12;;;;;;;75.63;32.37;;;;;;;-1.49;65.34;100024.55;124726;1112;23107;-54
2021/03/11 05:19:40;;;;;;;82.80;34.20;;;;;;;-1.46;64.56;100024.52;124381;1111;23090;-57
2021/03/11 05:22:10;;;;;;;81.13;34.77;;;;;;;-1.44;64.53;100007.67;124389;1111;26559;-56
2021/03/11 05:24:39;;;;;;;76.85;32.28;;;;;;;-1.43;64.80;100004.56;124464;1112;23073;-54
2021/03/11 05:27:08;;;;;;;84.73;35.50;;;;;;;-1.42;65.10;100002.58;124311;1112;23027;-58
2021/03/11 05:29:37;;;;;;;91.17;35.03;;;;;;;-1.41;65.44;100004.93;124450;1111;23027;-57
2021/03/11 05:32:07;;;;;;;81.73;35.43;;;;;;;-1.38;64.41;100004.11;124357;1111;23024;-59
2021/03/11 05:34:36;;;;;;;90.38;36.50;;;;;;;-1.35;64.55;100005.27;124449;1112;23074;-58
2021/03/11 05:37:07;;;;;;;79.73;34.60;;;;;;;-1.34;64.50;100004.06;124441;1112;26508;-55
2021/03/11 05:39:38;;;;;;;78.33;34.13;;;;;;;-1.32;64.87;99993.48;124589;1112;23056;-53
2021/03/11 05:42:11;;;;;;;80.83;35.07;;;;;;;-1.30;64.23;99986.43;124448;1112;23027;-56
2021/03/11 05:44:41;;;;;;;77.97;34.43;;;;;;;-1.27;64.72;99980.16;124411;1111;26096;-55
2021/03/11 05:47:13;;;;;;;82.35;36.65;;;;;;;-1.25;64.70;99969.58;124462;1112;24394;-55
2021/03/11 05:49:43;;;;;;;91.90;39.73;;;;;;;-1.24;64.14;99962.89;124582;1112;23023;-54
2021/03/11 05:52:14;;;;;;;91.03;40.60;;;;;;;-1.22;64.50;99955.05;124374;1111;26440;-62
2021/03/11 05:54:45;;;;;;;79.07;35.67;;;;;;;-1.20;64.29;99946.45;124129;1112;23245;-55
2021/03/11 05:57:14;;;;;;;86.83;37.87;;;;;;;-1.18;64.96;99942.09;124361;1112;23084;-54
2021/03/11 05:59:43;;;;;;;81.10;35.17;;;;;;;-1.16;64.84;99944.45;124303;1112;23112;-54
2021/03/11 06:02:13;;;;;;;77.50;34.90;;;;;;;-1.13;64.77;99932.66;124295;1112;24632;-56
2021/03/11 06:04:43;;;;;;;79.87;37.48;;;;;;;-1.11;64.76;99936.55;124175;1112;23000;-55
2021/03/11 06:07:13;;;;;;;91.20;42.93;;;;;;;-1.09;64.44;99925.97;124380;1110;24818;-55
2021/03/11 06:09:42;;;;;;;87.75;37.67;;;;;;;-1.06;64.45;99929.86;124378;1112;26690;-54
2021/03/11 06:12:14;;;;;;;89.50;39.77;;;;;;;-1.03;65.14;99915.33;124509;1111;27801;-54
2021/03/11 06:14:48;;;;;;;89.73;39.20;;;;;;;-1.00;64.52;99907.09;124523;1111;23027;-55
2021/03/11 06:17:17;;;;;;;88.30;38.65;;;;;;;-0.97;64.48;99902.73;124395;1111;27517;-54
2021/03/11 06:19:47;;;;;;;88.75;38.10;;;;;;;-0.94;65.02;99907.41;124426;1112;25717;-53
2021/03/11 06:22:19;;;;;;;81.40;36.00;;;;;;;-0.89;65.23;99904.23;124529;1110;23074;-53
2021/03/11 06:24:48;;;;;;;81.93;35.27;;;;;;;-0.85;64.51;99897.48;124421;1111;23020;-53
2021/03/11 06:27:17;;;;;;;81.83;34.37;;;;;;;-0.82;64.70;99893.16;124377;1110;27358;-54
2021/03/11 06:29:46;;;;;;;75.77;34.43;;;;;;;-0.78;64.52;99891.15;124389;1112;23016;-54
2021/03/11 06:32:16;;;;;;;73.72;31.68;;;;;;;-0.72;64.49;99884.02;124344;1112;23023;-54
2021/03/11 06:34:45;;;;;;;69.63;32.37;;;;;;;-0.65;64.59;99869.45;124471;1111;23168;-56
2021/03/11 06:37:16;;;;;;;75.70;33.77;;;;;;;-0.60;64.84;99874.48;124388;1113;23403;-55
2021/03/11 06:39:45;;;;;;;72.80;29.57;;;;;;;-0.56;65.15;99862.25;124575;1112;23074;-54
2021/03/11 06:42:26;;;;;;;74.67;32.77;;;;;;;-0.51;64.41;99872.77;124514;1111;27906;-56
2021/03/11 06:44:55;;;;;;;72.03;32.15;;;;;;;-0.44;63.69;99867.20;124448;1112;23056;-53
2021/03/11 06:47:27;;;;;;;72.63;31.00;;;;;;;-0.38;63.74;99876.52;124325;1113;23017;-54
2021/03/11 06:50:00;;;;;;;76.70;32.30;;;;;;;-0.34;63.93;99858.03;124412;1112;27370;-53
2021/03/11 06:52:30;;;;;;;75.83;30.83;;;;;;;-0.29;64.08;99860.30;124146;1111;24271;-57
2021/03/11 06:55:03;;;;;;;64.87;28.15;;;;;;;-0.24;63.93;99861.80;124301;1111;26508;-54
2021/03/11 06:57:34;;;;;;;75.33;32.13;;;;;;;-0.18;64.31;99858.17;124401;1111;23226;-54
2021/03/11 07:00:16;;;;;;;80.47;34.00;;;;;;;-0.13;64.10;99849.48;124349;1112;23456;-55
2021/03/11 07:02:52;;;;;;;89.65;37.25;;;;;;;-0.07;63.28;99847.03;124346;1110;23223;-54
2021/03/11 07:05:23;;;;;;;79.23;33.67;;;;;;;-0.03;64.13;99848.53;124348;1112;22985;-54
2021/03/11 07:08:05;;;;;;;83.10;33.20;;;;;;;-0.01;64.24;99840.66;124339;1112;23051;-55
2021/03/11 07:10:36;;;;;;;73.67;31.23;;;;;;;0.07;63.13;99840.52;124322;1112;23091;-57
2021/03/11 07:13:06;;;;;;;74.20;32.07;;;;;;;0.11;63.04;99833.78;124359;1111;23208;-55
2021/03/11 07:15:38;;;;;;;80.30;33.90;;;;;;;0.16;63.53;99825.08;124380;1111;23021;-54
2021/03/11 07:18:10;;;;;;;76.40;33.27;;;;;;;0.20;63.30;99819.52;124264;1111;23003;-54
2021/03/11 07:20:39;;;;;;;67.73;30.40;;;;;;;0.24;62.59;99818.27;124064;1112;23068;-55
2021/03/11 07:23:10;;;;;;;72.70;31.75;;;;;;;0.27;63.60;99809.17;124645;1112;23186;-53
2021/03/11 07:25:40;;;;;;;65.07;28.50;;;;;;;0.31;63.47;99798.16;123993;1111;26038;-54
2021/03/11 07:28:11;;;;;;;65.05;28.95;;;;;;;0.35;63.39;99805.10;123507;1110;25926;-56
2021/03/11 07:30:51;;;;;;;;;;;;;;;0.40;62.81;99803.84;128149;1110;22853;-54
2021/03/11 07:33:21;;;;;;;77.17;32.38;;;;;;;0.45;63.51;99790.42;128153;1111;21430;-56
2021/03/11 07:35:51;;;;;;;;;;;;;;;0.51;62.70;99801.69;128129;1112;22877;-55
2021/03/11 07:38:22;;;;;;;67.70;30.93;;;;;;;0.53;63.60;99794.58;128181;1111;21423;-56
2021/03/11 07:40:52;;;;;;;79.10;34.40;;;;;;;0.58;62.78;99776.84;128144;1112;25376;-56
2021/03/11 07:43:23;;;;;;;79.73;34.20;;;;;;;0.64;62.76;99769.66;128136;1111;22864;-56
2021/03/11 07:45:54;;;;;;;71.92;30.25;;;;;;;0.69;62.79;99761.68;128145;1112;22819;-56
2021/03/11 07:48:24;;;;;;;63.90;28.20;;;;;;;0.74;62.68;99766.69;128140;1111;22861;-56
2021/03/11 07:50:55;;;;;;;63.83;26.85;;;;;;;0.80;63.08;99762.24;128175;1111;22967;-56
2021/03/11 07:53:26;;;;;;;59.27;26.33;;;;;;;0.87;62.98;99755.80;128147;1111;22992;-54
2021/03/11 07:55:57;;;;;;;58.40;25.03;;;;;;;0.95;62.74;99748.19;128118;1111;22949;-56
2021/03/11 07:58:27;;;;;;;58.97;23.37;;;;;;;1.00;62.43;99750.42;127331;1112;23452;-55
2021/03/11 08:00:56;;;;;;;47.58;20.30;;;;;;;1.06;62.18;99751.46;124399;1111;23060;-58
2021/03/11 08:03:27;;;;;;;46.17;20.57;;;;;;;1.13;62.24;99741.10;123953;1112;24786;-56
2021/03/11 08:06:16;;;;;;;60.93;25.43;;;;;;;1.20;62.29;99746.42;123920;1111;23017;-58
2021/03/11 08:08:46;;;;;;;58.67;25.07;;;;;;;1.26;61.98;99730.20;123523;1111;26577;-56
2021/03/11 08:11:32;;;;;;;47.83;21.45;;;;;;;1.31;62.16;99726.93;128107;1112;22854;-57
2021/03/11 08:14:23;;;;;;;40.87;16.50;;;;;;;1.36;61.73;99723.68;128130;1111;22824;-56
2021/03/11 08:16:54;;;;;;;46.15;19.90;;;;;;;1.41;61.74;99715.67;128115;1111;22960;-56
2021/03/11 08:19:50;;;;;;;47.95;20.85;;;;;;;1.47;61.46;99713.17;128113;1110;22837;-54
2021/03/11 08:22:51;;;;;;;51.43;22.30;;;;;;;1.55;62.36;99712.58;128103;1111;23716;-55
2021/03/11 08:25:49;;;;;;;48.63;19.82;;;;;;;1.61;61.54;99699.09;128159;1111;22892;-53
2021/03/11 08:28:51;;;;;;;41.87;18.37;;;;;;;1.69;61.83;99692.20;127851;1114;22903;-55
2021/03/11 08:31:31;;;;;;;46.47;17.53;;;;;;;1.78;61.76;99680.58;127826;1113;22937;-55
2021/03/11 08:34:01;;;;;;;43.60;18.30;;;;;;;1.86;62.32;99679.97;127832;1113;22874;-57
2021/03/11 08:36:37;;;;;;;45.73;18.20;;;;;;;1.92;62.33;99669.97;127844;1114;22793;-56
2021/03/11 08:39:34;;;;;;;39.63;18.30;;;;;;;2.00;62.05;99654.02;127810;1113;22884;-56
2021/03/11 08:42:46;;;;;;;51.70;21.73;;;;;;;2.07;62.29;99649.08;127835;1115;23684;-58
2021/03/11 08:46:00;;;;;;;46.53;18.70;;;;;;;2.19;61.90;99642.09;127771;1116;23007;-57
2021/03/11 08:48:40;;;;;;;42.43;16.90;;;;;;;2.26;61.84;99634.38;127828;1115;22883;-57
2021/03/11 08:51:10;;;;;;;;;;;;;;;2.31;61.93;99620.08;127843;1115;22925;-56
2021/03/11 08:53:48;;;;;;;40.35;16.05;;;;;;;2.37;61.12;99623.84;127784;1115;21556;-56
2021/03/11 08:56:44;;;;;;;42.23;17.77;;;;;;;2.45;61.95;99616.90;127447;1115;24068;-55
2021/03/11 08:59:18;;;;;;;43.77;19.43;;;;;;;2.53;62.06;99609.19;127455;1118;22949;-56
2021/03/11 09:01:49;;;;;;;41.27;19.27;;;;;;;2.61;62.13;99601.49;127467;1117;22853;-56
2021/03/11 09:04:42;;;;;;;37.00;16.33;;;;;;;2.67;61.91;99596.97;127467;1116;23091;-57
2021/03/11 09:07:27;;;;;;;38.53;17.20;;;;;;;2.72;61.17;99588.91;127496;1116;22893;-55
2021/03/11 09:09:57;;;;;;;42.00;17.50;;;;;;;2.78;61.12;99581.63;127502;1116;23569;-56
2021/03/11 09:12:35;;;;;;;42.40;17.65;;;;;;;2.81;61.34;99574.47;127508;1116;23038;-56
2021/03/11 09:15:07;;;;;;;38.20;16.93;;;;;;;2.83;61.68;99561.80;127457;1116;22901;-56
2021/03/11 09:17:38;;;;;;;36.10;14.60;;;;;;;2.86;61.31;99560.11;127497;1116;22884;-58
2021/03/11 09:20:13;;;;;;;41.20;17.60;;;;;;;2.90;61.66;99550.52;127747;1115;22865;-56
2021/03/11 09:22:47;;;;;;;35.63;15.40;;;;;;;2.93;61.39;99551.63;127830;1114;22902;-57
2021/03/11 09:25:17;;;;;;;40.80;17.13;;;;;;;2.97;61.79;99555.03;127786;1114;22856;-55
2021/03/11 09:27:54;;;;;;;41.08;18.25;;;;;;;3.00;61.41;99537.62;127812;1115;23837;-56
2021/03/11 09:30:26;;;;;;;43.20;17.20;;;;;;;3.04;61.57;99532.75;127840;1114;22884;-55
2021/03/11 09:32:55;;;;;;;35.97;16.27;;;;;;;3.08;61.97;99523.12;127813;1113;22862;-55
2021/03/11 09:35:27;;;;;;;40.53;18.00;;;;;;;3.12;61.91;99518.25;127899;1111;23971;-55
2021/03/11 09:37:59;;;;;;;39.20;17.20;;;;;;;3.17;61.40;99508.64;128162;1110;23631;-56
2021/03/11 09:40:34;;;;;;;39.43;17.63;;;;;;;3.22;61.56;99513.60;128142;1111;22998;-56
2021/03/11 09:43:10;;;;;;;39.60;16.30;;;;;;;3.28;61.70;99509.05;128166;1112;24062;-55
2021/03/11 09:45:42;;;;;;;40.13;19.00;;;;;;;3.33;61.94;99491.17;128146;1111;22856;-56
2021/03/11 09:48:17;;;;;;;44.75;18.85;;;;;;;3.36;61.62;99482.76;128101;1111;22924;-55
2021/03/11 09:50:58;;;;;;;39.50;16.70;;;;;;;3.41;61.83;99484.95;128117;1110;22917;-57
2021/03/11 09:53:36;;;;;;;30.80;14.10;;;;;;;3.45;62.01;99485.59;124666;1110;23347;-55
2021/03/11 09:56:07;;;;;;;40.23;16.43;;;;;;;3.48;61.96;99483.91;128058;1111;27077;-56
2021/03/11 09:58:41;;;;;;;38.67;15.67;;;;;;;3.53;62.65;99486.88;128050;1111;22856;-57
2021/03/11 10:01:10;;;;;;;34.23;14.30;;;;;;;3.57;62.39;99473.72;128105;1111;22845;-56
2021/03/11 10:03:39;;;;;;;32.40;14.43;;;;;;;3.62;62.84;99481.40;128072;1110;24827;-56
2021/03/11 10:06:08;;;;;;;40.00;17.23;;;;;;;3.67;62.39;99489.11;128120;1111;22864;-57
2021/03/11 10:08:40;;;;;;;34.00;14.30;;;;;;;3.73;62.65;99479.02;128118;1111;22862;-58
2021/03/11 10:11:13;;;;;;;38.53;13.90;;;;;;;3.79;62.29;99466.17;128095;1111;25318;-58
2021/03/11 10:13:49;;;;;;;31.37;13.43;;;;;;;3.87;62.31;99472.22;128118;1112;22860;-58
2021/03/11 10:16:37;;;;;;;33.80;15.60;;;;;;;3.94;61.88;99471.93;128153;1111;22883;-58
2021/03/11 10:19:10;;;;;;;29.83;11.43;;;;;;;4.04;61.90;99459.70;128169;1111;23967;-58
2021/03/11 10:21:51;;;;;;;31.37;13.93;;;;;;;4.11;61.68;99453.91;128203;1111;23039;-57
2021/03/11 10:24:35;;;;;;;27.43;12.00;;;;;;;4.20;61.33;99451.17;128116;1111;22789;-58
2021/03/11 10:27:16;;;;;;;31.13;14.83;;;;;;;4.30;61.95;99454.75;128149;1111;22850;-58
2021/03/11 10:29:47;;;;;;;28.85;12.25;;;;;;;4.41;61.32;99449.55;128160;1111;23015;-58
2021/03/11 10:32:25;;;;;;;28.03;12.67;;;;;;;4.50;61.30;99446.82;128161;1111;22972;-58
2021/03/11 10:34:55;;;;;;;30.37;12.20;;;;;;;4.59;61.49;99435.80;128151;1111;22885;-57
2021/03/11 10:37:29;;;;;;;29.87;12.23;;;;;;;4.65;61.48;99437.50;128160;1111;25281;-58
2021/03/11 10:40:00;;;;;;;26.37;12.03;;;;;;;4.71;61.80;99432.13;128148;1111;22831;-58
2021/03/11 10:42:42;;;;;;;28.63;11.90;;;;;;;4.71;61.79;99426.59;128112;1111;22998;-59
2021/03/11 10:45:13;;;;;;;29.07;12.30;;;;;;;4.70;61.33;99422.28;128154;1112;22894;-59
2021/03/11 10:47:43;;;;;;;30.70;12.03;;;;;;;4.71;61.49;99423.83;128157;1111;24883;-59
2021/03/11 10:50:21;;;;;;;28.02;12.25;;;;;;;4.72;61.45;99422.59;128109;1110;23285;-57
2021/03/11 10:52:51;;;;;;;28.57;11.33;;;;;;;4.73;61.46;99413.86;128181;1110;22887;-59
2021/03/11 10:55:31;;;;;;;28.57;11.80;;;;;;;4.72;61.15;99417.83;128190;1111;22977;-57
2021/03/11 10:58:01;;;;;;;27.93;11.80;;;;;;;4.69;61.42;99417.99;128110;1110;25805;-58
2021/03/11 11:00:32;;;;;;;27.82;11.43;;;;;;;4.65;61.16;99406.31;128172;1111;22793;-59
2021/03/11 11:03:06;;;;;;;24.17;9.90;;;;;;;4.63;61.50;99397.71;128108;1112;22864;-58
2021/03/11 11:05:35;;;;;;;23.00;9.87;;;;;;;4.62;61.30;99387.87;128168;1111;22972;-58
2021/03/11 11:08:07;;;;;;;25.63;10.83;;;;;;;4.60;61.61;99382.03;128153;1111;22863;-56
2021/03/11 11:10:37;;;;;;;30.67;12.20;;;;;;;4.56;61.48;99387.72;128191;1111;22982;-59
2021/03/11 11:13:06;;;;;;;30.90;12.90;;;;;;;4.54;62.38;99372.81;128140;1111;22867;-59
2021/03/11 11:15:35;;;;;;;25.93;11.53;;;;;;;4.54;62.79;99359.77;128131;1111;22852;-60
2021/03/11 11:18:05;;;;;;;25.30;10.37;;;;;;;4.54;62.43;99365.30;128173;1112;22855;-58
2021/03/11 11:20:36;;;;;;;24.20;10.93;;;;;;;4.55;62.84;99352.25;128134;1111;22850;-57
2021/03/11 11:23:06;;;;;;;22.90;9.13;;;;;;;4.57;62.25;99336.72;128143;1111;24777;-58
2021/03/11 11:25:35;;;;;;;28.80;11.97;;;;;;;4.60;62.63;99335.81;128150;1110;23738;-58
2021/03/11 11:28:06;;;;;;;29.30;11.43;;;;;;;4.62;62.11;99338.11;128145;1111;24032;-57
2021/03/11 11:30:36;;;;;;;26.43;10.33;;;;;;;4.63;62.23;99329.38;128144;1112;22898;-57
2021/03/11 11:33:05;;;;;;;32.00;12.33;;;;;;;4.65;62.49;99334.44;128143;1111;22824;-58